createdAt,value
2022-11-17T00:00:24.893Z,22.55
2022-11-17T00:02:52.833Z,22.55
2022-11-17T00:05:21.049Z,22.54
2022-11-17T00:07:50.083Z,22.53
2022-11-17T00:10:18.276Z,22.53
2022-11-17T00:13:05.133Z,22.54
2022-11-17T00:15:33.042Z,22.54
2022-11-17T00:18:18.479Z,22.53
2022-11-17T00:21:04.055Z,22.54
2022-11-17T00:23:47.451Z,22.56
2022-11-17T00:26:16.453Z,22.56
2022-11-17T00:28:45.779Z,22.57
2022-11-17T00:31:42.381Z,22.56
2022-11-17T00:34:13.484Z,22.59
2022-11-17T00:36:42.261Z,22.60
2022-11-17T00:39:10.555Z,22.61
2022-11-17T00:41:38.499Z,22.63
2022-11-17T00:44:07.947Z,22.63
2022-11-17T00:46:36.072Z,22.65
2022-11-17T00:49:03.993Z,22.65
2022-11-17T00:51:31.922Z,22.66
2022-11-17T00:53:59.885Z,22.67
2022-11-17T00:56:27.971Z,22.69
2022-11-17T00:58:55.928Z,22.69
2022-11-17T01:01:25.310Z,22.69
2022-11-17T01:04:02.963Z,22.71
2022-11-17T01:06:31.848Z,22.70
2022-11-17T01:09:00.583Z,22.71
2022-11-17T01:11:28.584Z,22.71
2022-11-17T01:13:57.342Z,22.72
2022-11-17T01:16:26.764Z,22.72
2022-11-17T01:18:54.751Z,22.74
2022-11-17T01:21:23.456Z,22.76
2022-11-17T01:23:52.274Z,22.76
2022-11-17T01:26:20.888Z,22.76
2022-11-17T01:28:49.006Z,22.76
2022-11-17T01:31:17.773Z,22.77
2022-11-17T01:33:47.149Z,22.78
2022-11-17T01:36:16.045Z,22.79
2022-11-17T01:38:44.048Z,22.80
2022-11-17T01:41:15.048Z,22.81
2022-11-17T01:43:44.033Z,22.81
2022-11-17T01:46:26.112Z,22.82
2022-11-17T01:48:56.055Z,22.83
2022-11-17T01:51:23.994Z,22.83
2022-11-17T01:53:51.991Z,22.84
2022-11-17T01:56:21.048Z,22.85
2022-11-17T01:58:51.496Z,22.86
2022-11-17T02:01:19.425Z,22.87
2022-11-17T02:03:47.465Z,22.87
2022-11-17T02:06:18.267Z,22.87
2022-11-17T02:08:47.276Z,22.88
2022-11-17T02:11:17.629Z,22.89
2022-11-17T02:13:45.570Z,22.91
2022-11-17T02:16:13.532Z,22.90
2022-11-17T02:18:41.569Z,22.92
2022-11-17T02:21:42.995Z,22.92
2022-11-17T02:24:51.925Z,22.93
2022-11-17T02:27:52.937Z,22.93
2022-11-17T02:30:21.254Z,22.93
2022-11-17T02:32:57.610Z,22.95
2022-11-17T02:35:27.339Z,22.95
2022-11-17T02:38:00.232Z,22.94
2022-11-17T02:40:30.705Z,22.96
2022-11-17T02:43:18.187Z,22.96
2022-11-17T02:45:48.650Z,22.98
2022-11-17T02:48:18.930Z,22.97
2022-11-17T02:50:47.722Z,22.98
2022-11-17T02:53:15.621Z,22.98
2022-11-17T02:55:49.445Z,23.00
2022-11-17T02:58:18.794Z,23.00
2022-11-17T03:00:51.985Z,23.00
2022-11-17T03:03:25.003Z,23.00
2022-11-17T03:05:57.730Z,23.00
2022-11-17T03:08:32.988Z,23.02
2022-11-17T03:11:02.638Z,23.01
2022-11-17T03:13:37.317Z,23.03
2022-11-17T03:16:11.149Z,23.03
2022-11-17T03:18:41.662Z,23.04
2022-11-17T03:21:12.102Z,23.04
2022-11-17T03:23:42.249Z,23.02
2022-11-17T03:26:11.720Z,23.06
2022-11-17T03:28:42.552Z,23.03
2022-11-17T03:31:10.492Z,23.06
2022-11-17T03:33:38.679Z,23.07
2022-11-17T03:36:08.439Z,23.06
2022-11-17T03:38:37.631Z,23.08
2022-11-17T03:41:05.844Z,23.07
2022-11-17T03:43:34.034Z,23.07
2022-11-17T03:46:04.967Z,23.09
2022-11-17T03:48:35.870Z,23.08
2022-11-17T03:51:06.560Z,23.09
2022-11-17T03:53:34.993Z,23.09
2022-11-17T03:56:05.399Z,23.09
2022-11-17T03:58:34.250Z,23.09
2022-11-17T04:01:03.548Z,23.10
2022-11-17T04:03:32.129Z,23.09
2022-11-17T04:06:00.287Z,23.09
2022-11-17T04:08:30.595Z,23.10
2022-11-17T04:11:15.880Z,23.10
2022-11-17T04:14:01.044Z,23.10
2022-11-17T04:16:30.406Z,23.09
2022-11-17T04:18:59.195Z,23.09
2022-11-17T04:21:27.269Z,23.09
2022-11-17T04:23:56.109Z,23.08
2022-11-17T04:26:41.296Z,23.08
2022-11-17T04:29:09.153Z,23.08
2022-11-17T04:31:38.449Z,23.08
2022-11-17T04:34:06.904Z,23.08
2022-11-17T04:36:36.895Z,23.08
2022-11-17T04:39:05.257Z,23.08
2022-11-17T04:41:50.338Z,23.08
2022-11-17T04:44:18.740Z,23.07
2022-11-17T04:46:48.011Z,23.07
2022-11-17T04:49:16.158Z,23.08
2022-11-17T04:51:44.200Z,23.07
2022-11-17T04:54:13.003Z,23.06
2022-11-17T04:56:40.952Z,23.07
2022-11-17T04:59:08.971Z,23.08
2022-11-17T05:01:36.905Z,23.07
2022-11-17T05:04:07.067Z,23.06
2022-11-17T05:06:35.633Z,23.05
2022-11-17T05:09:05.304Z,23.06
2022-11-17T05:11:50.347Z,23.04
2022-11-17T05:14:19.655Z,23.06
2022-11-17T05:17:09.535Z,23.08
2022-11-17T05:19:40.576Z,23.08
2022-11-17T05:22:29.572Z,23.08
2022-11-17T05:24:56.500Z,23.07
2022-11-17T05:27:24.508Z,23.08
2022-11-17T05:29:52.432Z,23.09
2022-11-17T05:32:20.315Z,23.08
2022-11-17T05:34:49.628Z,23.08
2022-11-17T05:37:17.513Z,23.05
2022-11-17T05:39:45.438Z,23.09
2022-11-17T05:42:13.365Z,23.10
2022-11-17T05:44:41.302Z,23.08
2022-11-17T05:47:09.253Z,23.08
2022-11-17T05:49:37.117Z,23.09
2022-11-17T05:52:06.710Z,23.09
2022-11-17T05:54:34.623Z,23.10
2022-11-17T05:57:03.542Z,23.11
2022-11-17T05:59:32.729Z,23.10
2022-11-17T06:02:01.731Z,23.12
2022-11-17T06:04:29.839Z,23.11
2022-11-17T06:06:59.621Z,23.12
2022-11-17T06:09:29.785Z,23.12
2022-11-17T06:12:01.061Z,23.13
2022-11-17T06:14:33.397Z,23.14
2022-11-17T06:17:02.898Z,23.13
2022-11-17T06:19:33.485Z,23.14
2022-11-17T06:22:16.584Z,23.13
2022-11-17T06:24:46.022Z,23.14
2022-11-17T06:27:13.960Z,23.12
2022-11-17T06:29:44.963Z,23.12
2022-11-17T06:32:13.304Z,23.13
2022-11-17T06:34:41.259Z,23.12
2022-11-17T06:37:09.189Z,23.12
2022-11-17T06:39:37.098Z,23.11
2022-11-17T06:42:06.530Z,23.12
2022-11-17T06:44:34.459Z,23.11
2022-11-17T06:47:02.684Z,23.11
2022-11-17T06:49:30.586Z,23.10
2022-11-17T06:51:58.512Z,23.10
2022-11-17T06:54:26.453Z,23.11
2022-11-17T06:56:55.456Z,23.11
2022-11-17T06:59:24.802Z,23.11
2022-11-17T07:01:52.868Z,23.11
2022-11-17T07:04:20.811Z,23.12
2022-11-17T07:06:48.843Z,23.11
2022-11-17T07:09:16.779Z,23.11
2022-11-17T07:11:44.801Z,23.12
2022-11-17T07:14:12.700Z,23.13
2022-11-17T07:16:42.690Z,23.13
2022-11-17T07:19:11.011Z,23.13
2022-11-17T07:21:39.028Z,23.14
2022-11-17T07:24:07.459Z,23.17
2022-11-17T07:26:35.440Z,23.17
2022-11-17T07:29:03.423Z,23.18
2022-11-17T07:31:31.444Z,23.18
2022-11-17T07:34:00.772Z,23.19
2022-11-17T07:36:29.186Z,23.20
2022-11-17T07:38:57.090Z,23.21
2022-11-17T07:41:25.121Z,23.24
2022-11-17T07:43:53.030Z,23.26
2022-11-17T07:46:21.021Z,23.26
2022-11-17T07:48:48.969Z,23.26
2022-11-17T07:51:18.348Z,23.26
2022-11-17T07:53:46.331Z,23.26
2022-11-17T07:56:14.601Z,23.28
2022-11-17T07:58:42.818Z,23.29
2022-11-17T08:01:12.174Z,23.31
2022-11-17T08:03:40.347Z,23.33
2022-11-17T08:06:09.402Z,23.33
2022-11-17T08:08:39.235Z,23.34
2022-11-17T08:11:08.180Z,23.35
2022-11-17T08:13:36.187Z,23.34
2022-11-17T08:16:04.251Z,23.36
2022-11-17T08:18:32.364Z,23.36
2022-11-17T08:21:04.448Z,23.36
2022-11-17T08:23:32.379Z,23.34
2022-11-17T08:26:01.767Z,23.34
2022-11-17T08:28:29.785Z,23.34
2022-11-17T08:30:57.786Z,23.34
2022-11-17T08:33:27.717Z,23.35
2022-11-17T08:35:58.156Z,23.36
2022-11-17T08:38:29.028Z,23.35
2022-11-17T08:40:57.337Z,23.35
2022-11-17T08:43:26.669Z,23.36
2022-11-17T08:45:54.648Z,23.38
2022-11-17T08:48:22.562Z,23.44
2022-11-17T08:50:50.633Z,23.45
2022-11-17T08:53:19.935Z,23.47
2022-11-17T08:55:47.937Z,23.47
2022-11-17T08:58:15.877Z,23.49
2022-11-17T09:00:47.686Z,23.47
2022-11-17T09:03:18.202Z,23.43
2022-11-17T09:05:47.240Z,23.42
2022-11-17T09:08:45.004Z,23.46
2022-11-17T09:11:05.408Z,23.46
2022-11-17T09:13:33.715Z,23.47
2022-11-17T09:16:03.730Z,23.46
2022-11-17T09:18:31.786Z,23.45
2022-11-17T09:21:02.831Z,23.48
2022-11-17T09:23:31.764Z,23.52
2022-11-17T09:26:00.060Z,23.54
2022-11-17T09:28:28.011Z,23.56
2022-11-17T09:30:56.034Z,23.54
2022-11-17T09:33:25.447Z,23.60
2022-11-17T09:35:53.398Z,23.61
2022-11-17T09:38:21.359Z,23.64
2022-11-17T09:40:49.461Z,23.64
2022-11-17T09:43:20.500Z,23.62
2022-11-17T09:45:48.429Z,23.62
2022-11-17T09:51:07.546Z,23.64
2022-11-17T09:53:38.671Z,23.67
2022-11-17T09:56:08.584Z,23.70
2022-11-17T09:58:38.896Z,23.72
2022-11-17T10:01:07.208Z,23.70
2022-11-17T10:03:40.458Z,23.67
2022-11-17T10:06:16.449Z,23.67
2022-11-17T10:08:47.474Z,23.70
2022-11-17T10:11:35.064Z,23.73
2022-11-17T10:14:05.730Z,23.72
2022-11-17T10:16:33.726Z,23.76
2022-11-17T10:19:03.734Z,23.78
2022-11-17T10:21:33.243Z,23.79
2022-11-17T10:24:01.281Z,23.78
2022-11-17T10:26:29.572Z,23.73
2022-11-17T10:29:08.973Z,23.70
2022-11-17T10:31:44.865Z,23.73
2022-11-17T10:34:13.351Z,23.78
2022-11-17T10:36:48.750Z,23.81
2022-11-17T10:39:36.948Z,23.83
2022-11-17T10:42:17.749Z,23.84
2022-11-17T10:44:51.265Z,23.83
2022-11-17T10:47:30.567Z,23.84
2022-11-17T10:50:27.559Z,23.81
2022-11-17T10:52:57.304Z,23.79
2022-11-17T10:55:27.424Z,23.74
2022-11-17T10:57:58.103Z,23.69
2022-11-17T11:00:30.689Z,23.70
2022-11-17T11:03:15.793Z,23.70
2022-11-17T11:06:02.660Z,23.69
2022-11-17T11:08:51.689Z,23.68
2022-11-17T11:11:34.885Z,23.66
2022-11-17T11:14:08.245Z,23.65
2022-11-17T11:16:36.169Z,23.64
2022-11-17T11:19:04.203Z,23.68
2022-11-17T11:21:41.271Z,23.73
2022-11-17T11:24:14.824Z,23.75
2022-11-17T11:26:50.074Z,23.77
2022-11-17T11:29:25.142Z,23.79
2022-11-17T11:32:01.118Z,23.80
2022-11-17T11:34:38.552Z,23.77
2022-11-17T11:37:09.325Z,23.74
2022-11-17T11:39:44.358Z,23.68
2022-11-17T11:42:29.982Z,23.65
2022-11-17T11:45:11.893Z,23.65
2022-11-17T11:47:47.837Z,23.63
2022-11-17T11:50:17.596Z,23.64
2022-11-17T11:52:46.948Z,23.67
2022-11-17T11:55:20.250Z,23.64
2022-11-17T11:57:50.962Z,23.62
2022-11-17T12:00:19.971Z,23.63
2022-11-17T12:02:51.491Z,23.65
2022-11-17T12:05:22.918Z,23.65
2022-11-17T12:07:52.055Z,23.65
2022-11-17T12:10:23.017Z,23.64
2022-11-17T12:12:51.275Z,23.64
2022-11-17T12:15:37.532Z,23.64
2022-11-17T12:18:07.902Z,23.61
2022-11-17T12:21:03.116Z,23.60
2022-11-17T12:24:02.308Z,23.59
2022-11-17T12:26:32.107Z,23.57
2022-11-17T12:29:25.895Z,23.56
2022-11-17T12:31:54.025Z,23.56
2022-11-17T12:34:29.240Z,23.56
2022-11-17T12:37:21.782Z,23.55
2022-11-17T12:39:56.695Z,23.52
2022-11-17T12:42:26.096Z,23.52
2022-11-17T12:44:58.347Z,23.53
2022-11-17T12:47:27.293Z,23.53
2022-11-17T12:50:10.224Z,23.55
2022-11-17T12:52:42.177Z,23.56
2022-11-17T12:55:16.594Z,23.54
2022-11-17T12:57:46.575Z,23.54
2022-11-17T13:00:17.295Z,23.54
2022-11-17T13:02:58.964Z,23.55
2022-11-17T13:05:27.716Z,23.54
2022-11-17T13:08:21.955Z,23.53
2022-11-17T13:10:50.125Z,23.50
2022-11-17T13:13:23.729Z,23.48
2022-11-17T13:15:52.109Z,23.47
2022-11-17T13:18:29.544Z,23.47
2022-11-17T13:20:57.554Z,23.46
2022-11-17T13:23:26.148Z,23.46
2022-11-17T13:26:09.445Z,23.45
2022-11-17T13:28:39.183Z,23.44
2022-11-17T13:31:08.363Z,23.43
2022-11-17T13:33:40.158Z,23.42
2022-11-17T13:36:17.387Z,23.41
2022-11-17T13:38:49.149Z,23.40
2022-11-17T13:41:17.430Z,23.36
2022-11-17T13:43:48.815Z,23.35
2022-11-17T13:46:17.226Z,23.35
2022-11-17T13:48:46.565Z,23.33
2022-11-17T13:51:29.046Z,23.31
2022-11-17T13:53:59.741Z,23.29
2022-11-17T13:56:31.708Z,23.29
2022-11-17T13:59:02.435Z,23.26
2022-11-17T14:01:31.502Z,23.26
2022-11-17T14:04:20.007Z,23.24
2022-11-17T14:06:58.695Z,23.22
2022-11-17T14:09:27.363Z,23.20
2022-11-17T14:11:55.442Z,23.20
2022-11-17T14:14:29.691Z,23.18
2022-11-17T14:16:58.189Z,23.17
2022-11-17T14:19:32.922Z,23.15
2022-11-17T14:22:03.174Z,23.14
2022-11-17T14:24:32.058Z,23.13
2022-11-17T14:27:00.120Z,23.10
2022-11-17T14:29:30.020Z,23.09
2022-11-17T14:31:58.287Z,23.09
2022-11-17T14:34:26.313Z,23.07
2022-11-17T14:36:55.968Z,23.04
2022-11-17T14:39:23.895Z,23.03
2022-11-17T14:41:52.692Z,23.01
2022-11-17T14:44:21.989Z,22.99
2022-11-17T14:46:51.873Z,22.99
2022-11-17T14:49:19.791Z,22.98
2022-11-17T14:51:50.030Z,22.98
2022-11-17T14:54:17.994Z,22.97
2022-11-17T14:56:46.576Z,22.96
2022-11-17T14:59:15.051Z,22.95
2022-11-17T15:01:44.313Z,22.94
2022-11-17T15:04:35.182Z,22.94
2022-11-17T15:07:03.864Z,22.94
2022-11-17T15:09:32.510Z,22.93
2022-11-17T15:12:01.130Z,22.93
2022-11-17T15:14:29.245Z,22.90
2022-11-17T15:16:57.871Z,22.89
2022-11-17T15:19:27.383Z,22.87
2022-11-17T15:21:56.008Z,22.88
2022-11-17T15:24:23.988Z,22.88
2022-11-17T15:26:52.718Z,22.87
2022-11-17T15:29:20.648Z,22.86
2022-11-17T15:31:50.002Z,22.85
2022-11-17T15:34:20.476Z,22.85
2022-11-17T15:36:50.920Z,22.83
2022-11-17T15:39:19.111Z,22.82
2022-11-17T15:41:47.958Z,22.79
2022-11-17T15:44:16.178Z,22.79
2022-11-17T15:46:47.675Z,22.77
2022-11-17T15:49:16.186Z,22.77
2022-11-17T15:51:45.170Z,22.75
2022-11-17T15:54:20.037Z,22.73
2022-11-17T15:56:49.332Z,22.73
2022-11-17T15:59:17.513Z,22.72
2022-11-17T16:01:46.535Z,22.70
2022-11-17T16:04:15.597Z,22.70
2022-11-17T16:06:45.407Z,22.68
2022-11-17T16:09:15.379Z,22.69
2022-11-17T16:11:45.128Z,22.68
2022-11-17T16:14:14.992Z,22.67
2022-11-17T16:16:45.056Z,22.64
2022-11-17T16:19:13.057Z,22.65
2022-11-17T16:21:41.660Z,22.64
2022-11-17T16:24:11.535Z,22.63
2022-11-17T16:26:41.639Z,22.63
2022-11-17T16:29:09.927Z,22.60
2022-11-17T16:31:38.579Z,22.59
2022-11-17T16:34:09.088Z,22.58
2022-11-17T16:36:39.046Z,22.56
2022-11-17T16:39:09.051Z,22.55
2022-11-17T16:41:38.016Z,22.54
2022-11-17T16:44:12.421Z,22.53
2022-11-17T16:46:42.110Z,22.53
2022-11-17T16:49:12.644Z,22.53
2022-11-17T16:51:40.790Z,22.51
2022-11-17T16:54:12.238Z,22.51
2022-11-17T16:56:40.333Z,22.50
2022-11-17T16:59:13.197Z,22.48
2022-11-17T17:01:41.282Z,22.48
2022-11-17T17:04:11.041Z,22.47
2022-11-17T17:06:40.323Z,22.45
2022-11-17T17:09:09.425Z,22.45
2022-11-17T17:11:37.459Z,22.46
2022-11-17T17:14:08.222Z,22.46
2022-11-17T17:16:37.992Z,22.45
2022-11-17T17:19:06.691Z,22.45
2022-11-17T17:21:35.556Z,22.46
2022-11-17T17:24:03.694Z,22.46
2022-11-17T17:26:33.160Z,22.46
2022-11-17T17:29:01.583Z,22.43
2022-11-17T17:31:31.943Z,22.43
2022-11-17T17:34:01.341Z,22.42
2022-11-17T17:36:30.586Z,22.43
2022-11-17T17:38:59.793Z,22.43
2022-11-17T17:41:29.901Z,22.43
2022-11-17T17:43:58.951Z,22.42
2022-11-17T17:46:27.806Z,22.42
2022-11-17T17:48:56.578Z,22.42
2022-11-17T17:51:27.740Z,22.42
2022-11-17T17:53:57.952Z,22.40
2022-11-17T17:56:26.945Z,22.40
2022-11-17T17:58:55.515Z,22.37
2022-11-17T18:01:25.049Z,22.38
2022-11-17T18:03:54.656Z,22.37
2022-11-17T18:06:24.029Z,22.35
2022-11-17T18:08:53.336Z,22.35
2022-11-17T18:11:23.087Z,22.31
2022-11-17T18:13:52.301Z,22.32
2022-11-17T18:16:21.479Z,22.30
2022-11-17T18:18:50.344Z,22.28
2022-11-17T18:21:19.359Z,22.28
2022-11-17T18:23:48.131Z,22.26
2022-11-17T18:26:19.626Z,22.25
2022-11-17T18:28:52.236Z,22.24
2022-11-17T18:31:21.070Z,22.24
2022-11-17T18:33:52.450Z,22.22
2022-11-17T18:36:21.176Z,22.23
2022-11-17T18:38:50.208Z,22.22
2022-11-17T18:41:19.990Z,22.20
2022-11-17T18:43:48.694Z,22.20
2022-11-17T18:46:18.972Z,22.19
2022-11-17T18:48:48.503Z,22.19
2022-11-17T18:51:19.935Z,22.19
2022-11-17T18:53:51.222Z,22.18
2022-11-17T18:56:22.739Z,22.17
2022-11-17T18:58:53.253Z,22.16
2022-11-17T19:01:21.876Z,22.15
2022-11-17T19:03:50.869Z,22.15
2022-11-17T19:06:20.283Z,22.14
2022-11-17T19:08:48.364Z,22.15
2022-11-17T19:11:17.453Z,22.15
2022-11-17T19:13:46.925Z,22.13
2022-11-17T19:16:16.187Z,22.12
2022-11-17T19:18:44.942Z,22.11
2022-11-17T19:21:15.308Z,22.11
2022-11-17T19:23:49.562Z,22.10
2022-11-17T19:26:21.709Z,22.10
2022-11-17T19:28:51.252Z,22.08
2022-11-17T19:31:21.467Z,22.08
2022-11-17T19:33:49.694Z,22.07
2022-11-17T19:36:19.416Z,22.08
2022-11-17T19:38:48.844Z,22.06
2022-11-17T19:41:18.921Z,22.04
2022-11-17T19:43:46.916Z,22.05
2022-11-17T19:46:19.377Z,22.04
2022-11-17T19:48:47.395Z,22.03
2022-11-17T19:51:18.337Z,22.02
2022-11-17T19:53:46.275Z,22.01
2022-11-17T19:56:17.637Z,22.01
2022-11-17T19:58:45.682Z,22.02
2022-11-17T20:01:14.977Z,22.01
2022-11-17T20:03:44.469Z,22.05
2022-11-17T20:06:15.300Z,22.06
2022-11-17T20:08:43.396Z,22.09
2022-11-17T20:11:13.996Z,22.11
2022-11-17T20:13:42.378Z,22.14
2022-11-17T20:16:13.148Z,22.15
2022-11-17T20:18:41.871Z,22.16
2022-11-17T20:21:12.180Z,22.19
2022-11-17T20:23:40.454Z,22.20
2022-11-17T20:26:10.124Z,22.22
2022-11-17T20:28:38.385Z,22.23
2022-11-17T20:31:10.620Z,22.24
2022-11-17T20:33:38.835Z,22.25
2022-11-17T20:36:07.568Z,22.26
2022-11-17T20:38:38.334Z,22.27
2022-11-17T20:41:06.460Z,22.28
2022-11-17T20:43:35.355Z,22.28
2022-11-17T20:46:03.478Z,22.29
2022-11-17T20:48:33.184Z,22.29
2022-11-17T20:51:01.884Z,22.31
2022-11-17T20:53:30.821Z,22.31
2022-11-17T20:56:00.585Z,22.32
2022-11-17T20:58:32.355Z,22.33
2022-11-17T21:01:00.606Z,22.33
2022-11-17T21:03:30.403Z,22.34
2022-11-17T21:06:02.028Z,22.35
2022-11-17T21:08:31.871Z,22.36
2022-11-17T21:11:02.109Z,22.36
2022-11-17T21:13:32.395Z,22.37
2022-11-17T21:16:04.721Z,22.37
2022-11-17T21:18:33.411Z,22.37
2022-11-17T21:21:02.907Z,22.38
2022-11-17T21:23:32.452Z,22.38
2022-11-17T21:26:05.536Z,22.38
2022-11-17T21:28:34.209Z,22.39
2022-11-17T21:31:07.925Z,22.41
2022-11-17T21:33:36.977Z,22.39
2022-11-17T21:36:05.393Z,22.38
2022-11-17T21:38:33.384Z,22.39
2022-11-17T21:41:06.799Z,22.39
2022-11-17T21:43:36.547Z,22.39
2022-11-17T21:46:05.516Z,22.39
2022-11-17T21:48:34.151Z,22.41
2022-11-17T21:51:03.370Z,22.41
2022-11-17T21:53:31.358Z,22.41
2022-11-17T21:56:03.271Z,22.41
2022-11-17T21:58:33.482Z,22.39
2022-11-17T22:01:08.147Z,22.41
2022-11-17T22:03:36.146Z,22.41
2022-11-17T22:06:09.424Z,22.42
2022-11-17T22:08:43.807Z,22.41
2022-11-17T22:11:15.386Z,22.40
2022-11-17T22:13:47.354Z,22.40
2022-11-17T22:16:16.106Z,22.39
2022-11-17T22:18:45.487Z,22.39
2022-11-17T22:21:15.374Z,22.38
2022-11-17T22:23:43.444Z,22.39
2022-11-17T22:26:12.159Z,22.37
2022-11-17T22:28:40.180Z,22.37
2022-11-17T22:31:10.844Z,22.37
2022-11-17T22:33:40.090Z,22.37
2022-11-17T22:36:09.649Z,22.36
2022-11-17T22:38:37.689Z,22.36
2022-11-17T22:41:07.373Z,22.35
2022-11-17T22:43:35.342Z,22.37
2022-11-17T22:46:04.575Z,22.36
2022-11-17T22:48:33.934Z,22.35
2022-11-17T22:51:02.468Z,22.36
2022-11-17T22:53:30.371Z,22.36
2022-11-17T22:56:03.095Z,22.36
2022-11-17T22:58:31.336Z,22.36
2022-11-17T23:01:00.074Z,22.36
2022-11-17T23:03:28.087Z,22.36
2022-11-17T23:06:01.847Z,22.37
2022-11-17T23:08:29.888Z,22.36
2022-11-17T23:11:29.758Z,22.36
2022-11-17T23:13:49.457Z,22.36
2022-11-17T23:16:17.636Z,22.36
2022-11-17T23:18:45.600Z,22.36
2022-11-17T23:21:15.282Z,22.36
2022-11-17T23:23:43.174Z,22.37
2022-11-17T23:26:12.935Z,22.36
2022-11-17T23:28:41.423Z,22.35
2022-11-17T23:31:11.555Z,22.37
2022-11-17T23:33:40.548Z,22.36
2022-11-17T23:36:10.355Z,22.36
2022-11-17T23:38:39.811Z,22.36
2022-11-17T23:41:08.538Z,22.36
2022-11-17T23:43:36.862Z,22.35
2022-11-17T23:46:05.226Z,22.34
2022-11-17T23:48:33.212Z,22.35
2022-11-17T23:51:05.560Z,22.35
2022-11-17T23:53:33.561Z,22.34
2022-11-17T23:56:03.156Z,22.34
2022-11-17T23:58:31.093Z,22.35
